createdAt,value
2018-03-08T00:00:44.023Z,496.00
2018-03-08T00:03:11.762Z,586.47
2018-03-08T00:05:39.395Z,589.10
2018-03-08T00:08:07.282Z,587.42
2018-03-08T00:10:35.357Z,475.58
2018-03-08T00:13:02.999Z,591.92
2018-03-08T00:15:30.469Z,596.72
2018-03-08T00:17:58.346Z,595.70
2018-03-08T00:20:26.106Z,600.00
2018-03-08T00:22:53.573Z,576.22
2018-03-08T00:25:21.273Z,594.03
2018-03-08T00:27:48.973Z,589.80
2018-03-08T00:30:16.611Z,594.03
2018-03-08T00:32:44.190Z,487.30
2018-03-08T00:35:11.950Z,580.78
2018-03-08T00:37:39.722Z,576.25
2018-03-08T00:40:07.270Z,575.15
2018-03-08T00:42:34.948Z,576.92
2018-03-08T00:45:02.526Z,572.53
2018-03-08T00:47:30.287Z,586.15
2018-03-08T00:49:58.662Z,593.95
2018-03-08T00:52:26.358Z,460.60
2018-03-08T00:54:54.198Z,480.73
2018-03-08T00:57:21.966Z,589.75
2018-03-08T00:59:49.726Z,593.15
2018-03-08T01:02:17.197Z,466.17
2018-03-08T01:04:44.938Z,475.62
2018-03-08T01:07:12.415Z,447.75
2018-03-08T01:09:40.043Z,474.85
2018-03-08T01:12:07.809Z,461.00
2018-03-08T01:14:35.277Z,593.30
2018-03-08T01:17:03.140Z,589.25
2018-03-08T01:19:30.819Z,460.30
2018-03-08T01:21:58.669Z,466.48
2018-03-08T01:24:26.319Z,482.33
2018-03-08T01:26:53.777Z,469.48
2018-03-08T01:29:21.665Z,465.83
2018-03-08T01:34:22.109Z,459.85
2018-03-08T01:36:49.554Z,395.67
2018-03-08T01:39:17.645Z,390.83
2018-03-08T01:41:45.561Z,99.00
2018-03-08T01:44:14.081Z,489.37
2018-03-08T01:46:41.845Z,587.20
2018-03-08T01:49:09.964Z,589.83
2018-03-08T01:51:37.693Z,585.80
2018-03-08T01:54:05.328Z,588.65
2018-03-08T01:56:32.905Z,588.85
2018-03-08T01:59:00.679Z,589.85
2018-03-08T02:01:28.118Z,587.70
2018-03-08T02:03:55.578Z,589.83
2018-03-08T02:06:23.355Z,592.10
2018-03-08T02:08:50.993Z,586.90
2018-03-08T02:11:18.863Z,592.95
2018-03-08T02:13:46.647Z,588.65
2018-03-08T02:16:14.106Z,587.00
2018-03-08T02:18:41.870Z,587.30
2018-03-08T02:21:09.324Z,593.70
2018-03-08T02:23:36.950Z,592.95
2018-03-08T02:26:04.436Z,597.60
2018-03-08T02:28:32.310Z,598.92
2018-03-08T02:30:59.765Z,593.05
2018-03-08T02:33:27.206Z,594.88
2018-03-08T02:35:54.994Z,590.62
2018-03-08T02:38:22.655Z,597.05
2018-03-08T02:40:50.509Z,592.03
2018-03-08T02:43:18.159Z,592.35
2018-03-08T02:45:45.926Z,590.35
2018-03-08T02:48:13.507Z,585.10
2018-03-08T02:50:40.963Z,590.95
2018-03-08T02:53:09.035Z,588.78
2018-03-08T02:55:36.492Z,581.45
2018-03-08T02:58:03.967Z,584.67
2018-03-08T03:00:31.719Z,583.10
2018-03-08T03:02:59.356Z,577.05
2018-03-08T03:05:26.803Z,580.30
2018-03-08T03:07:54.270Z,581.45
2018-03-08T03:10:22.188Z,580.35
2018-03-08T03:12:49.792Z,583.05
2018-03-08T03:15:17.683Z,487.88
2018-03-08T03:17:45.372Z,576.30
2018-03-08T03:20:13.211Z,579.78
2018-03-08T03:22:40.851Z,585.00
2018-03-08T03:25:08.336Z,583.40
2018-03-08T03:27:35.791Z,583.67
2018-03-08T03:30:03.361Z,587.47
2018-03-08T03:32:31.111Z,584.75
2018-03-08T03:34:59.526Z,588.15
2018-03-08T03:37:27.134Z,588.60
2018-03-08T03:39:54.719Z,589.25
2018-03-08T03:42:22.475Z,586.72
2018-03-08T03:44:50.247Z,587.35
2018-03-08T03:47:18.151Z,591.83
2018-03-08T03:49:45.583Z,585.58
2018-03-08T03:52:13.131Z,590.33
2018-03-08T03:54:40.592Z,589.60
2018-03-08T03:57:08.035Z,594.10
2018-03-08T03:59:35.598Z,586.95
2018-03-08T04:02:03.378Z,592.33
2018-03-08T04:04:31.113Z,589.92
2018-03-08T04:06:58.760Z,592.45
2018-03-08T04:09:26.347Z,592.70
2018-03-08T04:11:54.602Z,594.42
2018-03-08T04:14:22.494Z,588.87
2018-03-08T04:16:50.039Z,597.47
2018-03-08T04:19:17.710Z,595.42
2018-03-08T04:21:45.831Z,594.33
2018-03-08T04:24:13.474Z,594.08
2018-03-08T04:26:41.687Z,592.42
2018-03-08T04:29:09.387Z,596.37
2018-03-08T04:31:36.835Z,591.08
2018-03-08T04:34:04.391Z,591.80
2018-03-08T04:36:32.373Z,587.35
2018-03-08T04:39:00.043Z,599.08
2018-03-08T04:41:27.541Z,595.05
2018-03-08T04:43:55.230Z,598.20
2018-03-08T04:46:22.679Z,598.60
2018-03-08T04:48:50.453Z,593.67
2018-03-08T04:51:18.030Z,597.13
2018-03-08T04:53:45.727Z,589.70
2018-03-08T04:56:13.463Z,591.28
2018-03-08T04:58:41.342Z,594.40
2018-03-08T05:01:08.885Z,595.03
2018-03-08T05:03:36.610Z,594.95
2018-03-08T05:06:04.189Z,599.75
2018-03-08T05:08:31.950Z,598.67
2018-03-08T05:10:59.403Z,598.08
2018-03-08T05:13:26.876Z,593.92
2018-03-08T05:15:54.318Z,613.05
2018-03-08T05:18:22.215Z,502.55
2018-03-08T05:20:49.659Z,597.08
2018-03-08T05:23:17.307Z,596.78
2018-03-08T05:25:45.380Z,594.20
2018-03-08T05:28:12.870Z,601.50
2018-03-08T05:30:40.330Z,602.20
2018-03-08T05:33:08.058Z,597.35
2018-03-08T05:35:35.814Z,602.97
2018-03-08T05:38:03.710Z,594.20
2018-03-08T05:40:31.475Z,592.20
2018-03-08T05:42:58.946Z,597.03
2018-03-08T05:45:26.700Z,603.25
2018-03-08T05:47:54.154Z,600.15
2018-03-08T05:50:21.794Z,601.75
2018-03-08T05:52:49.688Z,606.60
2018-03-08T05:55:17.331Z,598.05
2018-03-08T05:57:44.785Z,593.35
2018-03-08T06:00:12.235Z,596.90
2018-03-08T06:02:39.820Z,603.05
2018-03-08T06:05:07.592Z,608.00
2018-03-08T06:07:35.253Z,601.85
2018-03-08T06:10:04.034Z,598.75
2018-03-08T06:12:31.674Z,598.42
2018-03-08T06:14:59.750Z,601.83
2018-03-08T06:17:27.327Z,597.63
2018-03-08T06:19:55.104Z,599.55
2018-03-08T06:22:22.543Z,609.83
2018-03-08T06:24:50.319Z,596.35
2018-03-08T06:27:18.094Z,604.75
2018-03-08T06:29:45.538Z,596.22
2018-03-08T06:32:13.183Z,595.10
2018-03-08T06:34:40.755Z,606.65
2018-03-08T06:37:08.398Z,597.70
2018-03-08T06:39:35.891Z,599.75
2018-03-08T06:42:03.343Z,597.72
2018-03-08T06:44:31.507Z,614.35
2018-03-08T06:46:59.146Z,598.30
2018-03-08T06:49:26.726Z,609.42
2018-03-08T06:51:54.381Z,595.65
2018-03-08T06:54:21.851Z,607.03
2018-03-08T06:56:49.611Z,600.15
2018-03-08T06:59:17.483Z,601.00
2018-03-08T07:01:45.252Z,601.08
2018-03-08T07:04:12.706Z,595.78
2018-03-08T07:06:40.772Z,605.45
2018-03-08T07:09:08.534Z,602.03
2018-03-08T07:11:35.978Z,598.05
2018-03-08T07:14:03.631Z,600.75
2018-03-08T07:16:31.091Z,599.00
2018-03-08T07:18:58.855Z,506.50
2018-03-08T07:21:26.320Z,602.78
2018-03-08T07:23:53.816Z,599.20
2018-03-08T07:26:21.658Z,604.40
2018-03-08T07:28:49.243Z,605.17
2018-03-08T07:31:16.750Z,606.10
2018-03-08T07:33:44.339Z,600.95
2018-03-08T07:36:12.012Z,599.72
2018-03-08T07:38:39.747Z,606.72
2018-03-08T07:41:07.194Z,601.75
2018-03-08T07:43:35.043Z,604.03
2018-03-08T07:46:03.155Z,609.40
2018-03-08T07:48:31.117Z,614.83
2018-03-08T07:50:58.560Z,611.45
2018-03-08T07:53:26.477Z,609.70
2018-03-08T07:55:54.214Z,614.05
2018-03-08T07:58:21.659Z,616.75
2018-03-08T08:00:49.450Z,623.30
2018-03-08T08:03:17.203Z,622.47
2018-03-08T08:05:56.312Z,631.87
2018-03-08T08:08:35.555Z,639.05
2018-03-08T08:11:03.539Z,636.35
2018-03-08T08:13:31.250Z,658.72
2018-03-08T08:15:58.970Z,637.00
2018-03-08T08:18:26.635Z,640.12
2018-03-08T08:20:54.305Z,638.78
2018-03-08T08:23:21.731Z,627.97
2018-03-08T08:25:49.503Z,630.40
2018-03-08T08:28:17.187Z,628.22
2018-03-08T08:30:44.656Z,630.30
2018-03-08T08:33:12.104Z,637.00
2018-03-08T08:35:40.560Z,632.22
2018-03-08T08:38:08.328Z,629.12
2018-03-08T08:40:35.787Z,633.20
2018-03-08T08:43:03.551Z,630.53
2018-03-08T08:45:31.583Z,635.85
2018-03-08T08:47:59.079Z,636.28
2018-03-08T08:50:26.842Z,640.88
2018-03-08T08:52:55.095Z,636.70
2018-03-08T08:55:22.891Z,636.10
2018-03-08T08:57:50.748Z,652.72
2018-03-08T09:00:18.227Z,674.43
2018-03-08T09:05:36.139Z,687.83
2018-03-08T09:10:57.028Z,686.77
2018-03-08T09:13:25.520Z,695.27
2018-03-08T09:15:52.983Z,683.77
2018-03-08T09:18:20.740Z,678.17
2018-03-08T09:20:48.195Z,680.17
2018-03-08T09:23:16.295Z,690.67
2018-03-08T09:25:43.951Z,689.67
2018-03-08T09:28:11.418Z,689.13
2018-03-08T09:30:39.299Z,689.97
2018-03-08T09:33:07.063Z,695.47
2018-03-08T09:35:34.526Z,692.60
2018-03-08T09:38:02.062Z,702.27
2018-03-08T09:40:29.526Z,709.03
2018-03-08T09:42:57.192Z,706.37
2018-03-08T09:45:24.954Z,715.17
2018-03-08T09:47:53.059Z,724.97
2018-03-08T09:50:21.410Z,717.77
2018-03-08T09:52:48.864Z,718.87
2018-03-08T09:55:17.354Z,704.73
2018-03-08T09:57:45.323Z,706.40
2018-03-08T10:00:12.775Z,693.63
2018-03-08T10:02:40.852Z,702.57
2018-03-08T10:05:08.542Z,711.77
2018-03-08T10:07:36.143Z,703.97
2018-03-08T10:10:03.836Z,719.97
2018-03-08T10:12:31.499Z,720.00
2018-03-08T10:14:58.969Z,723.87
2018-03-08T10:17:26.428Z,725.97
2018-03-08T10:19:54.283Z,733.87
2018-03-08T10:22:21.919Z,732.60
2018-03-08T10:24:49.378Z,732.27
2018-03-08T10:27:16.864Z,728.07
2018-03-08T10:29:44.723Z,722.20
2018-03-08T10:32:12.491Z,728.00
2018-03-08T10:34:40.126Z,725.33
2018-03-08T10:37:07.885Z,721.57
2018-03-08T10:39:35.359Z,718.87
2018-03-08T10:42:02.928Z,716.10
2018-03-08T10:44:30.401Z,718.93
2018-03-08T10:46:58.069Z,717.63
2018-03-08T10:49:25.522Z,716.00
2018-03-08T10:51:52.996Z,711.97
2018-03-08T10:54:20.450Z,705.30
2018-03-08T10:56:48.292Z,706.43
2018-03-08T10:59:15.745Z,714.60
2018-03-08T11:01:44.117Z,704.87
2018-03-08T11:04:14.674Z,712.17
2018-03-08T11:06:42.377Z,708.93
2018-03-08T11:09:09.995Z,717.53
2018-03-08T11:11:37.640Z,718.23
2018-03-08T11:14:05.279Z,711.47
2018-03-08T11:16:33.163Z,708.47
2018-03-08T11:19:00.892Z,682.23
2018-03-08T11:21:28.570Z,686.77
2018-03-08T11:23:56.029Z,684.43
2018-03-08T11:26:23.607Z,684.15
2018-03-08T11:28:51.300Z,682.20
2018-03-08T11:31:18.767Z,681.60
2018-03-08T11:33:46.591Z,669.00
2018-03-08T11:36:14.664Z,677.15
2018-03-08T11:38:42.442Z,684.03
2018-03-08T11:41:10.067Z,686.25
2018-03-08T11:43:37.964Z,686.73
2018-03-08T11:46:06.646Z,684.73
2018-03-08T11:48:33.842Z,688.63
2018-03-08T11:51:00.818Z,683.33
2018-03-08T11:53:28.887Z,683.67
2018-03-08T11:55:56.470Z,680.67
2018-03-08T11:58:23.947Z,680.67
2018-03-08T12:00:51.691Z,671.92
2018-03-08T12:03:19.456Z,672.30
2018-03-08T12:05:46.915Z,675.17
2018-03-08T12:08:14.987Z,665.67
2018-03-08T12:10:42.622Z,673.90
2018-03-08T12:13:10.089Z,673.62
2018-03-08T12:15:37.971Z,669.75
2018-03-08T12:18:05.449Z,669.30
2018-03-08T12:20:34.480Z,664.22
2018-03-08T12:23:01.926Z,665.35
2018-03-08T12:25:29.822Z,663.55
2018-03-08T12:27:57.662Z,664.50
2018-03-08T12:30:25.127Z,658.83
2018-03-08T12:32:52.575Z,55.70
2018-03-08T12:35:20.239Z,610.25
2018-03-08T12:37:50.043Z,463.23
2018-03-08T12:40:17.632Z,464.35
2018-03-08T12:42:45.527Z,674.45
2018-03-08T12:45:13.291Z,504.27
2018-03-08T12:47:40.747Z,487.67
2018-03-08T12:50:08.515Z,627.20
2018-03-08T12:52:36.582Z,509.17
2018-03-08T12:55:04.042Z,509.15
2018-03-08T12:57:31.807Z,546.72
2018-03-08T12:59:59.983Z,536.30
2018-03-08T13:02:27.828Z,514.25
2018-03-08T13:04:55.313Z,503.77
2018-03-08T13:07:22.764Z,519.35
2018-03-08T13:09:50.315Z,537.53
2018-03-08T13:12:18.267Z,523.88
2018-03-08T13:14:45.983Z,543.78
2018-03-08T13:17:14.447Z,545.25
2018-03-08T13:19:41.860Z,509.15
2018-03-08T13:22:09.324Z,515.90
2018-03-08T13:24:37.827Z,542.28
2018-03-08T13:27:05.282Z,527.22
2018-03-08T13:29:32.946Z,540.00
2018-03-08T13:32:00.689Z,545.12
2018-03-08T13:34:28.183Z,506.92
2018-03-08T13:36:55.638Z,559.47
2018-03-08T13:39:23.495Z,669.28
2018-03-08T13:41:50.963Z,544.55
2018-03-08T13:44:18.888Z,554.05
2018-03-08T13:46:46.478Z,671.47
2018-03-08T13:49:25.666Z,445.55
2018-03-08T13:51:53.275Z,676.47
2018-03-08T13:54:21.141Z,676.60
2018-03-08T13:56:49.182Z,628.42
2018-03-08T13:59:16.847Z,533.33
2018-03-08T14:01:44.302Z,557.60
2018-03-08T14:04:12.195Z,313.52
2018-03-08T14:06:39.762Z,276.00
2018-03-08T14:09:07.290Z,113.05
2018-03-08T14:11:34.770Z,546.92
2018-03-08T14:14:02.240Z,132.82
2018-03-08T14:16:29.699Z,194.13
2018-03-08T14:18:57.546Z,129.48
2018-03-08T14:21:25.188Z,121.90
2018-03-08T14:23:52.948Z,112.10
2018-03-08T14:26:21.147Z,115.10
2018-03-08T14:28:48.915Z,122.82
2018-03-08T14:31:16.558Z,103.22
2018-03-08T14:33:44.447Z,242.20
2018-03-08T14:36:12.087Z,41.37
2018-03-08T14:38:39.757Z,115.20
2018-03-08T14:41:07.427Z,123.55
2018-03-08T14:43:35.503Z,532.05
2018-03-08T14:46:03.243Z,28.38
2018-03-08T14:48:30.903Z,44.35
2018-03-08T14:50:58.374Z,532.67
2018-03-08T14:53:25.854Z,484.75
2018-03-08T14:55:53.710Z,137.10
2018-03-08T14:58:21.471Z,104.97
2018-03-08T15:00:49.139Z,114.53
2018-03-08T15:03:16.603Z,42.33
2018-03-08T15:05:44.055Z,34.97
2018-03-08T15:08:11.789Z,181.45
2018-03-08T15:10:39.358Z,20.70
2018-03-08T15:13:07.017Z,24.80
2018-03-08T15:15:34.455Z,30.77
2018-03-08T15:18:02.043Z,28.08
2018-03-08T15:20:29.815Z,34.33
2018-03-08T15:22:57.419Z,38.50
2018-03-08T15:25:25.631Z,23.95
2018-03-08T15:27:53.719Z,27.33
2018-03-08T15:30:21.266Z,26.10
2018-03-08T15:32:49.030Z,41.65
2018-03-08T15:35:17.367Z,15.00
2018-03-08T15:37:44.957Z,24.77
2018-03-08T15:40:12.558Z,20.67
2018-03-08T15:42:40.019Z,25.10
2018-03-08T15:45:07.763Z,27.00
2018-03-08T15:47:35.527Z,16.35
2018-03-08T15:50:02.993Z,34.97
2018-03-08T15:52:30.434Z,26.50
2018-03-08T15:54:58.207Z,30.95
2018-03-08T15:57:25.971Z,30.30
2018-03-08T15:59:53.422Z,35.97
2018-03-08T16:02:25.681Z,37.38
2018-03-08T16:04:53.258Z,23.05
2018-03-08T16:20:47.938Z,28.45
2018-03-08T16:23:15.430Z,44.13
2018-03-08T16:25:43.255Z,18.52
2018-03-08T16:28:10.693Z,27.70
2018-03-08T16:30:38.387Z,43.78
2018-03-08T16:33:05.942Z,109.78
2018-03-08T16:35:34.014Z,32.30
2018-03-08T16:38:01.779Z,21.92
2018-03-08T16:40:29.851Z,34.70
2018-03-08T16:42:57.511Z,30.52
2018-03-08T16:45:25.254Z,23.40
2018-03-08T16:47:53.020Z,35.40
2018-03-08T16:50:23.752Z,33.80
2018-03-08T16:52:51.439Z,39.35
2018-03-08T16:55:19.199Z,25.35
2018-03-08T16:57:46.915Z,36.35
2018-03-08T17:00:14.352Z,27.13
2018-03-08T17:02:42.067Z,31.80
2018-03-08T17:05:09.546Z,26.37
2018-03-08T17:07:37.102Z,39.58
2018-03-08T17:10:04.870Z,23.95
2018-03-08T17:12:32.504Z,30.25
2018-03-08T17:15:00.390Z,25.15
2018-03-08T17:17:28.022Z,21.17
2018-03-08T17:19:55.867Z,17.17
2018-03-08T17:22:23.586Z,27.30
2018-03-08T17:24:51.342Z,27.25
2018-03-08T17:27:18.785Z,38.10
2018-03-08T17:29:46.455Z,33.17
2018-03-08T17:32:14.027Z,34.75
2018-03-08T17:34:41.895Z,31.02
2018-03-08T17:37:09.528Z,56.13
2018-03-08T17:39:37.027Z,15.38
2018-03-08T17:42:04.875Z,18.42
2018-03-08T17:44:32.948Z,24.77
2018-03-08T17:47:00.716Z,100.87
2018-03-08T17:49:28.387Z,67.95
2018-03-08T17:51:56.108Z,48.92
2018-03-08T17:54:23.575Z,42.17
2018-03-08T17:56:51.199Z,39.38
2018-03-08T17:59:18.800Z,30.17
2018-03-08T18:01:48.280Z,35.55
2018-03-08T18:04:16.155Z,26.62
2018-03-08T18:06:43.933Z,68.18
2018-03-08T18:09:11.699Z,13.43
2018-03-08T18:11:39.164Z,56.45
2018-03-08T18:14:06.905Z,25.10
2018-03-08T18:16:34.494Z,114.47
2018-03-08T18:19:02.446Z,113.82
2018-03-08T18:21:30.027Z,17.58
2018-03-08T18:23:57.505Z,126.57
2018-03-08T18:26:25.160Z,21.40
2018-03-08T18:28:52.620Z,89.53
2018-03-08T18:31:20.078Z,37.13
2018-03-08T18:33:47.804Z,142.73
2018-03-08T18:36:15.691Z,37.70
2018-03-08T18:41:16.626Z,273.67
2018-03-08T18:43:44.074Z,153.65
2018-03-08T18:46:12.155Z,26.23
2018-03-08T18:48:40.043Z,16.98
2018-03-08T18:51:07.503Z,98.00
2018-03-08T18:53:35.142Z,173.13
2018-03-08T18:56:02.634Z,44.10
2018-03-08T18:58:30.265Z,50.08
2018-03-08T19:00:57.695Z,9.63
2018-03-08T19:03:25.277Z,13.45
2018-03-08T19:05:52.794Z,49.22
2018-03-08T19:08:20.635Z,11.57
2018-03-08T19:10:48.694Z,31.08
2018-03-08T19:13:16.462Z,126.53
2018-03-08T19:15:44.223Z,93.28
2018-03-08T19:18:12.013Z,34.28
2018-03-08T19:20:39.754Z,95.10
2018-03-08T19:23:07.389Z,78.50
2018-03-08T19:25:35.155Z,47.90
2018-03-08T19:28:02.736Z,59.67
2018-03-08T19:30:30.682Z,32.10
2018-03-08T19:32:58.519Z,37.85
2018-03-08T19:35:26.172Z,36.92
2018-03-08T19:37:53.976Z,18.65
2018-03-08T19:40:21.554Z,31.05
2018-03-08T19:42:49.627Z,19.25
2018-03-08T19:45:17.698Z,38.70
2018-03-08T19:47:45.464Z,23.17
2018-03-08T19:50:13.235Z,17.05
2018-03-08T19:52:40.766Z,27.13
2018-03-08T19:55:08.511Z,28.17
2018-03-08T19:57:36.383Z,26.35
2018-03-08T20:00:03.823Z,30.62
2018-03-08T20:02:32.094Z,91.10
2018-03-08T20:04:59.821Z,45.08
2018-03-08T20:07:27.579Z,23.50
2018-03-08T20:09:55.258Z,22.08
2018-03-08T20:12:22.991Z,31.90
2018-03-08T20:14:50.566Z,21.73
2018-03-08T20:17:18.200Z,34.25
2018-03-08T20:19:45.970Z,16.30
2018-03-08T20:22:13.551Z,26.75
2018-03-08T20:24:41.315Z,33.40
2018-03-08T20:27:08.766Z,37.25
2018-03-08T20:29:36.230Z,28.67
2018-03-08T20:32:03.691Z,26.92
2018-03-08T20:34:31.514Z,22.50
2018-03-08T20:36:59.234Z,25.25
2018-03-08T20:39:26.978Z,24.33
2018-03-08T20:41:54.619Z,26.35
2018-03-08T20:44:22.066Z,31.87
2018-03-08T20:46:49.659Z,30.05
2018-03-08T20:49:17.395Z,17.77
2018-03-08T20:51:45.190Z,50.38
2018-03-08T20:54:13.133Z,82.47
2018-03-08T20:56:40.823Z,15.48
2018-03-08T20:59:08.791Z,37.60
2018-03-08T21:01:36.428Z,32.92
2018-03-08T21:04:04.003Z,15.32
2018-03-08T21:06:31.774Z,25.88
2018-03-08T21:08:59.227Z,20.25
2018-03-08T21:11:27.299Z,22.60
2018-03-08T21:13:55.062Z,86.20
2018-03-08T21:16:22.522Z,34.83
2018-03-08T21:18:50.595Z,28.62
2018-03-08T21:21:18.326Z,86.40
2018-03-08T21:23:46.005Z,50.17
2018-03-08T21:26:13.863Z,22.37
2018-03-08T21:28:41.599Z,60.92
2018-03-08T21:31:09.042Z,49.38
2018-03-08T21:33:36.803Z,30.75
2018-03-08T21:36:04.331Z,88.87
2018-03-08T21:38:32.103Z,46.10
2018-03-08T21:41:00.167Z,22.02
2018-03-08T21:43:27.793Z,13.93
2018-03-08T21:45:55.386Z,15.82
2018-03-08T21:48:22.826Z,139.05
2018-03-08T21:50:50.609Z,24.58
2018-03-08T21:53:18.658Z,17.67
2018-03-08T21:55:46.313Z,62.28
2018-03-08T21:58:13.846Z,18.33
2018-03-08T22:00:41.704Z,104.65
2018-03-08T22:03:09.743Z,11.80
2018-03-08T22:05:37.182Z,16.37
2018-03-08T22:08:04.635Z,70.53
2018-03-08T22:10:32.308Z,44.35
2018-03-08T22:13:00.183Z,30.60
2018-03-08T22:15:27.854Z,12.45
2018-03-08T22:17:55.720Z,46.95
2018-03-08T22:20:23.166Z,31.62
2018-03-08T22:22:50.817Z,24.33
2018-03-08T22:25:18.258Z,30.10
2018-03-08T22:27:46.460Z,31.10
2018-03-08T22:30:14.088Z,39.67
2018-03-08T22:32:41.983Z,19.25
2018-03-08T22:35:10.059Z,29.30
2018-03-08T22:37:37.927Z,27.13
2018-03-08T22:42:38.575Z,69.55
2018-03-08T22:45:06.035Z,74.32
2018-03-08T22:47:33.482Z,64.87
2018-03-08T22:50:01.234Z,27.27
2018-03-08T22:52:28.892Z,97.70
2018-03-08T22:54:56.358Z,138.95
2018-03-08T22:57:23.847Z,77.18
2018-03-08T22:59:51.323Z,19.33
2018-03-08T23:02:18.779Z,44.20
2018-03-08T23:04:46.220Z,17.87
2018-03-08T23:07:13.668Z,18.23
2018-03-08T23:09:41.216Z,57.67
2018-03-08T23:12:08.982Z,88.80
2018-03-08T23:14:37.051Z,24.23
2018-03-08T23:17:04.511Z,56.53
2018-03-08T23:19:32.144Z,117.28
2018-03-08T23:21:59.614Z,133.07
2018-03-08T23:24:27.107Z,87.55
2018-03-08T23:26:54.950Z,80.00
2018-03-08T23:29:22.900Z,16.48
2018-03-08T23:31:50.482Z,27.87
2018-03-08T23:34:18.116Z,18.80
2018-03-08T23:36:45.874Z,112.37
2018-03-08T23:39:13.652Z,94.97
2018-03-08T23:41:41.267Z,145.93
2018-03-08T23:44:08.907Z,31.85
2018-03-08T23:46:36.363Z,104.05
2018-03-08T23:49:03.812Z,36.42
2018-03-08T23:51:31.263Z,129.90
2018-03-08T23:53:58.887Z,30.00
2018-03-08T23:56:26.584Z,44.63
2018-03-08T23:58:54.259Z,63.72
